YBOA weather

Boonah Airport
Queensland, Australia

Public forecast

Using degrees Celsius for public forecast. Weather courtesy of forecast.io.

METAR (pilot weather report)

Closest report is RAAF Base Amberley, 22.6 nm (41.9 km) N. Retrieved 2019/04/24 21:30 UTC (24 minutes ago):

YAMB 242130Z 21003KT 9999 FEW040 BKN180 18/16 Q1020 NOSIG

TAF (pilot weather forecast)

Closest forecast is RAAF Base Amberley, 22.6 nm (41.9 km) N. Retrieved 2019/04/24 18:00 UTC (4 hours ago):

TAF YAMB 241658Z 2418/2512 VRB03KT 9999 FEW030 BKN060 FM242200 12006KT 9999 SCT040 SCT120 FM250200 08009KT 9999 SCT045 FM251000 VRB03KT 9999 FEW050